Time;durP1;ratioP1;P1;durP2;ratioP2;P2;SDS_P1;SDS_P2;PMS_P1;PMS_P2;Temp;Humidity;BMP_temperature;BMP_pressure;BME280_temperature;BME280_humidity;BME280_pressure;Samples;Min_cycle;Max_cycle;Signal;HPM_P1;HPM_P2
2023/12/01 00:01:56;;;;;;;12.07;10.97;;;;;;;22.13;32.21;94670.00;6225028;27;111550;-71
2023/12/01 00:04:59;;;;;;;11.43;10.43;;;;;;;22.10;32.00;94679.41;6235461;27;110093;-73
2023/12/01 00:08:03;;;;;;;11.77;10.73;;;;;;;22.09;31.82;94674.38;6233925;27;109165;-71
2023/12/01 00:11:07;;;;;;;12.23;11.10;;;;;;;22.06;32.12;94646.50;6228880;27;109200;-71
2023/12/01 00:14:10;;;;;;;10.77;9.70;;;;;;;22.09;32.02;94635.19;6231027;28;110782;-72
2023/12/01 00:17:13;;;;;;;12.00;10.80;;;;;;;22.10;31.99;94692.72;6222595;28;110204;-71
2023/12/01 00:20:16;;;;;;;11.60;10.50;;;;;;;22.11;31.74;94645.53;6234208;27;110016;-71
2023/12/01 00:23:21;;;;;;;11.10;9.60;;;;;;;22.10;31.74;94684.72;6222304;27;109244;-70
2023/12/01 00:26:24;;;;;;;11.27;10.30;;;;;;;22.10;32.02;94655.41;6231254;28;110251;-71
2023/12/01 00:29:28;;;;;;;11.87;10.77;;;;;;;22.09;31.69;94672.50;6233741;27;110253;-71
2023/12/01 00:32:31;;;;;;;10.93;10.00;;;;;;;22.09;32.25;94672.50;6234289;28;109200;-71
2023/12/01 00:35:34;;;;;;;10.70;9.80;;;;;;;22.09;31.73;94685.81;6222683;27;109261;-61
2023/12/01 00:38:38;;;;;;;11.90;10.90;;;;;;;22.10;31.60;94590.69;6234750;27;109279;-61
2023/12/01 00:41:41;;;;;;;11.17;10.07;;;;;;;22.11;31.86;94606.34;6234798;28;109539;-62
2023/12/01 00:44:45;;;;;;;10.20;9.30;;;;;;;22.10;32.22;94647.41;6228532;27;109831;-61
2023/12/01 00:47:48;;;;;;;11.13;10.13;;;;;;;22.11;31.95;94586.91;6228186;27;109894;-61
2023/12/01 00:50:52;;;;;;;10.13;9.23;;;;;;;22.01;32.39;94633.34;6233631;27;110261;-61
2023/12/01 00:53:56;;;;;;;11.20;10.20;;;;;;;22.07;31.97;94645.41;6232632;27;109429;-62
2023/12/01 00:56:59;;;;;;;10.63;9.63;;;;;;;22.08;32.31;94638.19;6223213;28;110271;-61
2023/12/01 01:00:04;;;;;;;10.10;9.20;;;;;;;22.00;32.22;94655.72;6234301;28;110110;-61
2023/12/01 01:03:07;;;;;;;10.47;9.47;;;;;;;22.09;32.29;94627.22;6233585;27;109197;-61
2023/12/01 01:06:11;;;;;;;10.80;9.80;;;;;;;22.10;32.63;94658.09;6233324;28;110095;-60
2023/12/01 01:09:15;;;;;;;10.13;9.23;;;;;;;22.09;32.12;94672.50;6224167;27;109257;-61
2023/12/01 01:12:18;;;;;;;10.43;9.50;;;;;;;22.08;32.56;94620.31;6238329;27;109176;-61
2023/12/01 01:15:22;;;;;;;10.10;9.10;;;;;;;22.00;32.51;94637.06;6238762;27;109104;-61
2023/12/01 01:18:25;;;;;;;12.17;10.00;;;;;;;22.08;32.51;94580.34;6237759;27;109159;-63
2023/12/01 01:21:28;;;;;;;9.60;8.70;;;;;;;22.07;32.69;94661.38;6226460;27;111197;-61
2023/12/01 01:24:32;;;;;;;9.80;8.90;;;;;;;22.07;32.69;94586.78;6237797;27;109259;-61
2023/12/01 01:27:36;;;;;;;10.20;9.30;;;;;;;22.07;32.05;94664.03;6238089;27;109405;-61
2023/12/01 01:30:39;;;;;;;10.00;9.00;;;;;;;22.06;32.62;94577.22;6231464;27;109862;-61
2023/12/01 01:33:42;;;;;;;8.97;8.23;;;;;;;22.07;32.48;94642.72;6234224;27;109655;-61
2023/12/01 01:36:45;;;;;;;10.07;9.13;;;;;;;22.03;32.24;94569.84;6237497;27;109176;-61
2023/12/01 01:39:49;;;;;;;10.37;9.30;;;;;;;21.78;32.30;94581.28;6237552;28;110366;-62
2023/12/01 01:42:53;;;;;;;9.80;8.90;;;;;;;22.08;32.47;94590.22;6226780;27;109550;-61
2023/12/01 01:46:03;;;;;;;9.40;8.60;;;;;;;22.06;32.35;94640.38;6238357;27;110267;-67
2023/12/01 01:49:06;;;;;;;9.07;8.27;;;;;;;22.03;32.34;94564.53;6237103;27;110038;-67
2023/12/01 01:52:11;;;;;;;10.03;9.13;;;;;;;21.94;32.20;94590.38;6237897;27;109049;-67
2023/12/01 01:55:16;;;;;;;9.90;9.00;;;;;;;22.08;32.61;94568.91;6224922;27;109070;-67
2023/12/01 01:58:19;;;;;;;10.70;9.70;;;;;;;22.06;32.38;94600.41;6237159;28;110079;-67
2023/12/01 02:01:25;;;;;;;9.57;8.73;;;;;;;22.07;32.35;94605.44;6237357;28;110297;-67
2023/12/01 02:04:28;;;;;;;10.20;9.40;;;;;;;21.95;32.24;94544.00;6232619;27;109778;-66
2023/12/01 02:07:31;;;;;;;9.23;8.40;;;;;;;22.05;32.18;94620.94;6231451;27;110286;-66
2023/12/01 02:10:36;;;;;;;9.13;8.30;;;;;;;22.03;32.22;94599.16;6236701;27;109254;-66
2023/12/01 02:13:39;;;;;;;9.30;8.50;;;;;;;22.03;31.96;94556.53;6237132;28;110121;-66
2023/12/01 02:16:46;;;;;;;9.53;8.63;;;;;;;22.06;32.56;94590.53;6226035;27;109233;-66
2023/12/01 02:19:51;;;;;;;10.60;9.50;;;;;;;22.06;32.35;94601.19;6236848;28;110378;-67
2023/12/01 02:22:55;;;;;;;10.47;9.57;;;;;;;22.01;31.91;94580.06;6235662;27;109311;-68
2023/12/01 02:25:59;;;;;;;9.43;8.63;;;;;;;21.81;32.30;94554.00;6236517;27;109671;-67
2023/12/01 02:29:04;;;;;;;10.03;9.10;;;;;;;22.05;32.22;94562.31;6226914;27;109909;-67
2023/12/01 02:32:07;;;;;;;8.90;8.10;;;;;;;22.03;32.54;94611.72;6235405;27;109292;-67
2023/12/01 02:35:12;;;;;;;10.47;9.47;;;;;;;22.05;32.03;94553.56;6235668;27;109307;-66
2023/12/01 02:38:17;;;;;;;10.03;9.13;;;;;;;22.05;32.25;94626.28;6233944;28;110985;-64
2023/12/01 02:41:20;;;;;;;8.87;8.07;;;;;;;22.05;32.18;94575.66;6230976;28;112206;-67
2023/12/01 02:44:23;;;;;;;9.63;8.63;;;;;;;22.05;32.14;94655.59;6236204;27;109124;-67
2023/12/01 02:47:26;;;;;;;9.63;8.73;;;;;;;22.05;32.54;94572.22;6232360;27;110770;-67
2023/12/01 02:50:31;;;;;;;9.50;8.70;;;;;;;22.03;32.33;94543.22;6221432;28;110410;-66
2023/12/01 02:53:35;;;;;;;8.67;7.87;;;;;;;21.82;32.23;94571.59;6236441;27;109284;-66
2023/12/01 02:56:38;;;;;;;9.20;8.40;;;;;;;22.05;32.16;94588.97;6233844;27;109303;-72
2023/12/01 02:59:41;;;;;;;9.10;8.30;;;;;;;22.04;32.30;94582.09;6236697;27;109514;-72
2023/12/01 03:02:45;;;;;;;9.20;8.30;;;;;;;21.89;32.26;94549.81;6225214;27;109261;-73
2023/12/01 03:05:48;;;;;;;9.13;8.33;;;;;;;22.05;32.19;94601.50;6233325;27;110101;-71
2023/12/01 03:08:53;;;;;;;9.03;8.23;;;;;;;22.03;32.57;94585.84;6234857;28;110232;-72
2023/12/01 03:11:56;;;;;;;8.47;7.77;;;;;;;22.01;32.09;94539.28;6234313;27;109619;-71
2023/12/01 03:14:59;;;;;;;8.87;8.10;;;;;;;22.05;32.62;94639.59;6226181;27;109188;-71
2023/12/01 03:18:11;;;;;;;8.37;7.57;;;;;;;21.94;32.21;94536.31;6236071;27;110321;-71
2023/12/01 03:21:14;;;;;;;7.90;7.20;;;;;;;22.03;32.36;94601.84;6236270;28;110124;-71
2023/12/01 03:24:20;;;;;;;9.03;8.17;;;;;;;22.03;32.46;94585.84;6227852;27;109056;-63
2023/12/01 03:27:25;;;;;;;8.20;7.50;;;;;;;22.04;32.49;94606.06;6232812;27;109120;-72
2023/12/01 03:30:28;;;;;;;7.53;6.90;;;;;;;22.03;32.05;94559.19;6233835;27;109776;-72
2023/12/01 03:33:31;;;;;;;7.73;7.03;;;;;;;22.04;32.33;94611.38;6235168;28;110574;-72
2023/12/01 03:36:34;;;;;;;7.00;6.40;;;;;;;22.05;32.49;94575.66;6224924;27;109088;-72
2023/12/01 03:39:39;;;;;;;7.67;6.97;;;;;;;22.05;32.27;94596.19;6235478;27;110377;-72
2023/12/01 03:42:44;;;;;;;7.90;7.30;;;;;;;22.05;32.46;94564.22;6235271;27;109219;-72
2023/12/01 03:45:47;;;;;;;7.07;6.47;;;;;;;22.05;32.36;94607.63;6234586;28;109654;-71
2023/12/01 03:48:50;;;;;;;7.60;6.90;;;;;;;22.05;32.01;94558.88;6214755;27;109672;-71
2023/12/01 03:51:53;;;;;;;7.50;6.80;;;;;;;22.05;32.47;94565.00;6234853;27;109646;-72
2023/12/01 03:54:58;;;;;;;7.20;6.50;;;;;;;22.03;32.45;94575.19;6234694;27;110381;-72
2023/12/01 03:58:02;;;;;;;7.20;6.60;;;;;;;22.05;32.24;94558.88;6230064;27;110059;-71
2023/12/01 04:01:06;;;;;;;7.60;7.00;;;;;;;22.05;31.97;94569.53;6228709;27;109162;-72
2023/12/01 04:04:10;;;;;;;7.03;6.47;;;;;;;22.06;32.39;94611.06;6234774;27;109437;-72
2023/12/01 04:07:14;;;;;;;6.80;6.20;;;;;;;22.04;32.05;94560.75;6233822;27;109954;-61
2023/12/01 04:10:19;;;;;;;7.23;6.60;;;;;;;22.04;32.36;94559.97;6222999;27;110450;-61
2023/12/01 04:13:22;;;;;;;6.13;5.53;;;;;;;22.06;32.28;94587.09;6233795;27;109131;-61
2023/12/01 04:16:27;;;;;;;6.10;5.60;;;;;;;22.07;32.19;94552.13;6233865;27;109251;-67
2023/12/01 04:19:30;;;;;;;6.60;6.00;;;;;;;22.07;32.59;94559.34;6235324;28;110119;-61
2023/12/01 04:22:33;;;;;;;6.00;5.40;;;;;;;22.14;32.24;94594.28;6224447;27;109165;-60
2023/12/01 04:25:38;;;;;;;6.57;5.70;;;;;;;22.22;32.03;94536.72;6233576;27;109121;-61
2023/12/01 04:28:43;;;;;;;10.47;9.57;;;;;;;22.20;32.39;94597.56;6234587;28;108808;-64
2023/12/01 04:31:46;;;;;;;29.67;27.27;;;;;;;22.12;32.94;94564.50;6233187;28;110188;-65
2023/12/01 04:35:02;;;;;;;37.53;34.33;;;;;;;22.08;32.96;94556.38;6225874;27;109148;-64
2023/12/01 04:38:06;;;;;;;34.13;30.90;;;;;;;22.07;33.30;94576.13;6233305;27;109352;-64
2023/12/01 04:41:10;;;;;;;36.27;33.23;;;;;;;21.98;32.84;94564.69;6234040;27;109288;-64
2023/12/01 04:44:13;;;;;;;32.97;30.17;;;;;;;22.03;32.86;94582.41;6223376;27;109476;-62
2023/12/01 04:47:17;;;;;;;32.17;29.47;;;;;;;21.97;32.99;94539.13;6230853;27;110532;-63
2023/12/01 04:50:21;;;;;;;31.30;28.47;;;;;;;22.06;33.86;94549.78;6220071;28;109108;-62
2023/12/01 04:53:24;;;;;;;31.90;28.90;;;;;;;22.12;33.57;94543.19;6230875;27;110104;-64
2023/12/01 04:56:29;;;;;;;29.87;27.13;;;;;;;22.11;33.93;94553.06;6221947;27;109030;-63
2023/12/01 04:59:32;;;;;;;30.13;27.40;;;;;;;22.11;34.18;94563.72;6221324;28;110165;-63
2023/12/01 05:02:35;;;;;;;29.40;26.90;;;;;;;22.11;34.38;94512.31;6232571;27;111464;-62
2023/12/01 05:05:41;;;;;;;27.53;24.93;;;;;;;22.11;33.65;94513.09;6233409;27;109006;-63
2023/12/01 05:08:44;;;;;;;24.97;22.37;;;;;;;22.04;34.26;94610.59;6221430;27;109049;-63
2023/12/01 05:11:49;;;;;;;17.80;16.20;;;;;;;21.92;34.25;94485.25;6230481;28;109335;-63
2023/12/01 05:14:53;;;;;;;13.77;12.30;;;;;;;21.79;33.77;94585.50;6234241;28;110982;-62
2023/12/01 05:17:58;;;;;;;14.47;12.90;;;;;;;21.70;33.18;94447.06;6222043;27;109224;-65
2023/12/01 05:21:01;;;;;;;13.70;12.50;;;;;;;21.87;33.69;94570.66;6211686;28;109275;-69
2023/12/01 05:24:05;;;;;;;12.53;11.23;;;;;;;21.90;33.58;94552.16;6234192;27;109468;-70
2023/12/01 05:27:10;;;;;;;11.43;10.53;;;;;;;21.91;33.67;94552.94;6233760;27;109556;-69
2023/12/01 05:30:14;;;;;;;11.60;10.60;;;;;;;21.91;33.74;94489.78;6220460;27;108780;-68
2023/12/01 05:33:17;;;;;;;12.07;11.00;;;;;;;21.93;33.80;94554.19;6225095;28;109601;-68
2023/12/01 05:36:20;;;;;;;11.87;10.87;;;;;;;21.93;33.88;94535.53;6233562;27;109117;-68
2023/12/01 05:39:23;;;;;;;11.27;10.27;;;;;;;21.93;33.96;94540.88;6208927;28;109222;-68
2023/12/01 05:42:28;;;;;;;10.27;9.30;;;;;;;21.92;33.74;94518.00;6206482;28;109096;-69
2023/12/01 05:45:33;;;;;;;9.30;8.50;;;;;;;21.92;33.39;94543.84;6233826;28;110016;-68
2023/12/01 05:48:37;;;;;;;8.80;8.03;;;;;;;21.92;33.70;94536.66;6233828;28;108947;-68
2023/12/01 05:51:40;;;;;;;9.60;8.70;;;;;;;21.90;33.86;94548.72;6228522;27;109065;-68
2023/12/01 05:54:43;;;;;;;11.40;8.57;;;;;;;21.94;33.96;94608.25;6229233;27;109999;-69
2023/12/01 05:57:49;;;;;;;8.80;8.07;;;;;;;21.87;33.49;94488.09;6237956;28;110098;-69
2023/12/01 06:00:53;;;;;;;8.00;7.30;;;;;;;21.94;33.69;94553.09;6237420;28;109997;-69
2023/12/01 06:03:56;;;;;;;8.17;7.33;;;;;;;21.96;33.83;94560.78;6227268;27;108839;-69
2023/12/01 06:06:59;;;;;;;8.63;7.20;;;;;;;21.97;33.55;94599.63;6237390;28;109056;-69
2023/12/01 06:10:03;;;;;;;7.97;7.13;;;;;;;21.96;33.95;94574.09;6237418;28;109006;-70
2023/12/01 06:13:07;;;;;;;7.70;6.73;;;;;;;21.96;33.59;94537.56;6229483;27;109205;-69
2023/12/01 06:16:11;;;;;;;8.33;7.10;;;;;;;21.91;34.13;94540.41;6227184;28;109294;-69
2023/12/01 06:19:14;;;;;;;6.70;6.10;;;;;;;21.94;33.82;94502.47;6237326;28;110085;-69
2023/12/01 06:22:17;;;;;;;6.80;5.93;;;;;;;21.95;34.18;94540.56;6237761;27;109956;-69
2023/12/01 06:25:26;;;;;;;6.70;6.00;;;;;;;21.79;33.79;94577.53;6237541;28;110030;-69
2023/12/01 06:28:31;;;;;;;6.93;6.33;;;;;;;21.96;33.98;94518.91;6230484;27;109008;-64
2023/12/01 06:31:34;;;;;;;6.37;5.87;;;;;;;21.96;34.61;94572.22;6236476;27;109413;-63
2023/12/01 06:34:37;;;;;;;6.97;5.73;;;;;;;21.96;34.26;94548.22;6237004;27;109082;-64
2023/12/01 06:37:41;;;;;;;6.93;5.57;;;;;;;21.95;34.30;94529.91;6226652;27;109216;-64
2023/12/01 06:40:45;;;;;;;6.07;5.20;;;;;;;21.98;34.09;94595.88;6236957;28;109096;-63
2023/12/01 06:43:49;;;;;;;5.57;4.93;;;;;;;21.97;34.43;94487.72;6236864;27;109424;-64
2023/12/01 06:46:52;;;;;;;5.93;5.43;;;;;;;21.94;34.49;94578.94;6236757;27;109115;-64
2023/12/01 06:49:56;;;;;;;6.07;5.47;;;;;;;21.77;34.04;94548.53;6226787;28;109320;-64
2023/12/01 06:53:00;;;;;;;5.50;5.00;;;;;;;21.98;34.23;94580.66;6237189;27;110198;-64
2023/12/01 06:56:04;;;;;;;5.73;5.00;;;;;;;21.97;34.20;94461.09;6236960;28;109911;-63
2023/12/01 06:59:09;;;;;;;7.20;5.10;;;;;;;22.08;33.95;94614.19;6236608;27;109259;-63
2023/12/01 07:02:17;;;;;;;5.37;4.87;;;;;;;22.08;33.94;94473.75;6225123;27;111266;-63
2023/12/01 07:05:21;;;;;;;5.73;5.17;;;;;;;22.13;34.93;94539.41;6235838;27;109066;-63
2023/12/01 07:08:24;;;;;;;6.30;5.40;;;;;;;22.13;34.42;94584.72;6235919;28;110158;-63
2023/12/01 07:11:27;;;;;;;5.20;4.63;;;;;;;22.14;34.71;94628.13;6232044;27;109358;-64
2023/12/01 07:14:33;;;;;;;5.00;4.50;;;;;;;22.15;34.70;94486.56;6230265;27;109386;-63
2023/12/01 07:17:36;;;;;;;6.20;4.53;;;;;;;22.17;34.33;94566.19;6236237;27;109277;-63
2023/12/01 07:20:39;;;;;;;4.67;4.27;;;;;;;22.13;34.25;94618.56;6236357;27;109013;-63
2023/12/01 07:23:44;;;;;;;4.80;4.27;;;;;;;22.16;34.52;94538.00;6225174;27;109400;-66
2023/12/01 07:26:51;;;;;;;5.63;5.00;;;;;;;22.05;34.45;94564.22;6236298;27;109119;-64
2023/12/01 07:29:56;;;;;;;4.93;4.37;;;;;;;22.07;34.27;94594.75;6236008;27;109652;-63
2023/12/01 07:33:01;;;;;;;7.70;3.77;;;;;;;22.04;34.56;94507.47;6235271;28;109194;-65
2023/12/01 07:36:07;;;;;;;4.43;4.03;;;;;;;22.04;33.99;94544.78;6224724;27;109372;-69
2023/12/01 07:39:15;;;;;;;4.70;3.87;;;;;;;22.03;34.07;94558.41;6236063;28;109139;-63
2023/12/01 07:42:18;;;;;;;4.20;3.80;;;;;;;22.02;34.13;94586.94;6236302;28;111254;-63
2023/12/01 07:45:23;;;;;;;4.87;4.37;;;;;;;21.89;34.47;94500.00;6231989;27;109248;-65
2023/12/01 07:48:26;;;;;;;4.43;3.90;;;;;;;22.06;34.03;94609.19;6230075;28;111074;-63
2023/12/01 07:51:30;;;;;;;4.20;3.80;;;;;;;22.06;34.21;94603.84;6235869;27;109036;-63
2023/12/01 07:54:33;;;;;;;4.70;4.30;;;;;;;22.08;33.95;94601.66;6235668;27;109109;-63
2023/12/01 07:57:39;;;;;;;4.03;3.63;;;;;;;21.98;33.82;94595.88;6225037;27;109350;-63
2023/12/01 08:00:45;;;;;;;4.30;3.90;;;;;;;22.08;33.64;94564.34;6235514;27;109102;-63
2023/12/01 08:03:48;;;;;;;4.10;3.70;;;;;;;22.07;34.22;94554.78;6234689;27;109007;-63
2023/12/01 08:06:51;;;;;;;4.40;4.00;;;;;;;22.08;34.17;94614.97;6234894;27;109064;-63
2023/12/01 08:09:54;;;;;;;4.70;4.10;;;;;;;22.08;33.70;94584.88;6225280;28;110318;-63
2023/12/01 08:12:59;;;;;;;4.03;3.63;;;;;;;22.04;33.80;94582.09;6234929;27;109159;-63
2023/12/01 08:16:06;;;;;;;4.20;3.80;;;;;;;22.05;33.99;94580.19;6235280;27;109034;-63
2023/12/01 08:19:10;;;;;;;4.20;3.80;;;;;;;22.02;34.12;94629.56;6234733;28;110550;-63
2023/12/01 08:22:13;;;;;;;4.93;3.70;;;;;;;22.00;33.72;94530.50;6225073;27;110057;-63
2023/12/01 08:25:21;;;;;;;4.70;3.90;;;;;;;22.00;34.23;94614.97;6235618;28;110134;-63
2023/12/01 08:28:25;;;;;;;4.37;3.57;;;;;;;21.98;34.00;94543.38;6234886;27;109203;-63
2023/12/01 08:31:30;;;;;;;4.40;3.80;;;;;;;21.99;34.27;94651.50;6226457;27;109943;-63
2023/12/01 08:34:33;;;;;;;4.27;3.80;;;;;;;21.98;34.10;94604.63;6233190;27;109163;-63
2023/12/01 08:37:37;;;;;;;4.00;3.60;;;;;;;21.99;33.81;94651.50;6234804;27;109171;-63
2023/12/01 08:40:40;;;;;;;4.53;3.50;;;;;;;21.99;33.57;94512.97;6234865;27;109125;-63
2023/12/01 08:43:46;;;;;;;7.17;4.27;;;;;;;22.05;33.81;94628.16;6224342;27;108975;-66
2023/12/01 08:46:51;;;;;;;5.00;3.67;;;;;;;22.10;34.01;94556.81;6235099;28;110346;-67
2023/12/01 08:49:56;;;;;;;4.47;3.80;;;;;;;22.11;34.04;94569.03;6234680;27;109066;-68
2023/12/01 08:52:59;;;;;;;3.80;3.40;;;;;;;22.04;33.53;94539.44;6235068;28;111045;-68
2023/12/01 08:56:02;;;;;;;4.00;3.30;;;;;;;22.06;33.66;94584.44;6224705;27;109451;-68
2023/12/01 08:59:05;;;;;;;3.70;3.40;;;;;;;22.04;33.62;94570.66;6234430;28;109137;-68
2023/12/01 09:02:09;;;;;;;4.00;3.60;;;;;;;22.04;33.76;94616.72;6234609;27;109473;-67
2023/12/01 09:05:17;;;;;;;4.33;3.50;;;;;;;22.04;33.99;94547.44;6227929;27;109064;-67
2023/12/01 09:08:21;;;;;;;4.70;3.20;;;;;;;22.02;34.26;94544.31;6228781;27;110067;-68
2023/12/01 09:11:24;;;;;;;4.07;3.67;;;;;;;22.02;33.60;94480.38;6234736;28;108882;-68
2023/12/01 09:14:27;;;;;;;4.13;3.77;;;;;;;21.94;34.10;94499.03;6234269;28;109216;-68
2023/12/01 09:17:31;;;;;;;3.20;2.90;;;;;;;22.03;33.80;94548.53;6223673;27;109107;-67
2023/12/01 09:20:34;;;;;;;4.30;3.33;;;;;;;22.07;34.15;94562.00;6234251;28;110139;-68
2023/12/01 09:23:40;;;;;;;3.10;2.80;;;;;;;22.09;34.03;94512.63;6234338;28;109242;-68
2023/12/01 09:26:43;;;;;;;3.23;2.80;;;;;;;22.08;34.25;94478.31;6234497;27;109157;-68
2023/12/01 09:29:46;;;;;;;3.70;3.40;;;;;;;22.09;33.81;94525.94;6225259;27;109269;-68
2023/12/01 09:32:51;;;;;;;3.47;3.00;;;;;;;22.11;34.00;94483.00;6239026;27;108872;-68
2023/12/01 09:35:55;;;;;;;3.33;3.03;;;;;;;22.16;34.35;94559.31;6237508;27;109090;-67
2023/12/01 09:39:02;;;;;;;3.30;3.00;;;;;;;22.19;34.32;94532.03;6234069;27;109133;-67
2023/12/01 09:42:07;;;;;;;3.07;2.77;;;;;;;22.15;34.29;94520.44;6232451;27;109935;-67
2023/12/01 09:45:15;;;;;;;3.43;3.13;;;;;;;22.19;34.12;94527.50;6238242;27;109082;-68
2023/12/01 09:48:20;;;;;;;3.10;2.60;;;;;;;22.10;34.05;94610.13;6237930;27;109274;-66
2023/12/01 09:51:24;;;;;;;3.50;3.17;;;;;;;22.15;34.17;94539.09;6227750;27;109028;-68
2023/12/01 09:54:27;;;;;;;3.37;3.03;;;;;;;22.14;34.18;94590.81;6238227;28;109387;-69
2023/12/01 09:57:31;;;;;;;3.30;3.00;;;;;;;22.10;34.28;94498.19;6238699;28;108894;-70
2023/12/01 10:04:34;;;;;;;3.43;2.77;;;;;;;22.11;34.37;94587.69;6226470;27;109237;-70
2023/12/01 10:07:39;;;;;;;3.07;2.77;;;;;;;22.08;34.27;94523.59;6236381;27;109472;-70
2023/12/01 10:10:44;;;;;;;2.80;2.50;;;;;;;22.10;34.26;94566.69;6237886;28;109778;-70
2023/12/01 10:13:49;;;;;;;4.37;2.90;;;;;;;22.07;34.19;94573.44;6236917;27;109137;-70
2023/12/01 10:16:52;;;;;;;2.93;2.63;;;;;;;22.07;34.84;94562.00;6230352;27;109712;-70
2023/12/01 10:19:56;;;;;;;3.03;2.73;;;;;;;22.06;34.27;94555.91;6237197;27;109399;-70
2023/12/01 10:23:02;;;;;;;2.93;2.60;;;;;;;22.06;34.18;94491.16;6237755;28;109050;-69
2023/12/01 10:26:07;;;;;;;3.53;3.10;;;;;;;22.04;34.33;94533.34;6227126;27;109492;-70
2023/12/01 10:29:28;;;;;;;2.60;2.40;;;;;;;22.05;34.47;94525.03;6237461;27;109061;-70
2023/12/01 10:32:31;;;;;;;2.97;2.67;;;;;;;22.07;34.62;94474.06;6237138;27;110259;-70
2023/12/01 10:35:36;;;;;;;4.10;3.37;;;;;;;22.07;34.59;94525.50;6237586;27;108832;-70
2023/12/01 10:38:39;;;;;;;2.70;2.50;;;;;;;22.08;34.53;94487.09;6226349;28;108922;-70
2023/12/01 10:41:44;;;;;;;2.80;2.60;;;;;;;22.11;34.53;94486.44;6236853;27;109044;-70
2023/12/01 10:44:48;;;;;;;3.57;2.67;;;;;;;22.08;34.55;94433.78;6237415;27;108647;-70
2023/12/01 10:47:56;;;;;;;2.60;2.40;;;;;;;22.10;34.50;94442.25;6236254;27;109655;-65
2023/12/01 10:51:03;;;;;;;3.70;2.70;;;;;;;22.09;34.19;94475.31;6229756;28;110536;-69
2023/12/01 10:54:10;;;;;;;3.33;2.93;;;;;;;22.11;34.67;94441.13;6237469;28;110368;-70
2023/12/01 10:57:20;;;;;;;2.80;2.50;;;;;;;22.14;34.57;94489.56;6237015;27;109055;-70
2023/12/01 11:00:30;;;;;;;2.87;2.50;;;;;;;22.11;34.27;94481.09;6226871;27;110842;-69
2023/12/01 11:03:38;;;;;;;2.67;2.27;;;;;;;22.08;34.49;94472.97;6236939;27;109013;-68
2023/12/01 11:06:56;;;;;;;2.63;2.40;;;;;;;22.13;34.52;94526.09;6211549;28;109067;-69
2023/12/01 11:10:21;;;;;;;4.60;2.40;;;;;;;22.11;34.30;94462.47;6222867;28;109134;-62
2023/12/01 11:13:36;;;;;;;3.07;2.77;;;;;;;22.07;34.21;94493.50;6226360;27;110055;-62
2023/12/01 11:16:41;;;;;;;3.00;2.50;;;;;;;22.11;34.25;94449.13;6211827;28;109155;-63
2023/12/01 11:19:44;;;;;;;3.83;2.60;;;;;;;22.03;34.37;94465.94;6227703;28;109148;-63
2023/12/01 11:22:48;;;;;;;2.83;2.50;;;;;;;22.10;34.55;94444.13;6228614;28;109689;-63
2023/12/01 11:25:56;;;;;;;2.90;2.30;;;;;;;22.11;34.81;94451.78;6236092;28;109699;-63
2023/12/01 11:29:09;;;;;;;3.10;2.80;;;;;;;22.11;34.17;94489.09;6236585;28;109676;-63
2023/12/01 11:32:15;;;;;;;3.03;2.73;;;;;;;22.11;34.28;94427.81;6236892;28;110065;-63
2023/12/01 11:35:18;;;;;;;4.00;2.57;;;;;;;22.12;34.58;94524.53;6225469;27;109008;-63
2023/12/01 11:38:22;;;;;;;3.10;2.60;;;;;;;22.14;34.37;94518.88;6235879;27;109230;-63
2023/12/01 11:41:28;;;;;;;3.10;2.60;;;;;;;22.11;34.22;94419.81;6235294;28;108994;-63
2023/12/01 11:44:34;;;;;;;3.10;2.57;;;;;;;22.20;34.43;94501.63;6236224;28;110103;-63
2023/12/01 11:47:39;;;;;;;3.40;2.83;;;;;;;22.21;34.65;94423.25;6226414;27;110237;-64
2023/12/01 11:50:42;;;;;;;2.60;2.40;;;;;;;22.24;34.51;94505.22;6235725;28;110289;-64
2023/12/01 11:53:56;;;;;;;3.33;2.60;;;;;;;22.22;34.81;94451.44;6235319;27;109331;-64
2023/12/01 11:57:00;;;;;;;3.23;2.50;;;;;;;22.25;35.22;94501.44;6200714;28;109159;-65
2023/12/01 12:00:09;;;;;;;3.37;3.07;;;;;;;22.22;35.23;94428.25;6219570;28;109116;-64
2023/12/01 12:03:20;;;;;;;3.53;3.23;;;;;;;22.18;35.24;94453.16;6236037;27;109248;-65
2023/12/01 12:06:25;;;;;;;4.00;2.87;;;;;;;22.23;34.88;94458.34;6234692;27;109317;-65
2023/12/01 12:09:32;;;;;;;2.47;2.27;;;;;;;22.27;34.99;94461.91;6224472;27;109291;-64
2023/12/01 12:12:36;;;;;;;3.60;2.67;;;;;;;22.27;34.92;94476.03;6234894;28;110100;-63
2023/12/01 12:15:39;;;;;;;3.53;2.67;;;;;;;22.29;35.19;94449.84;6235163;27;109055;-63
2023/12/01 12:18:42;;;;;;;3.17;2.80;;;;;;;22.26;35.40;94457.69;6235180;27;109308;-70
2023/12/01 12:21:47;;;;;;;2.80;2.50;;;;;;;22.20;35.58;94462.44;6223604;27;109298;-69
2023/12/01 12:24:52;;;;;;;3.13;2.80;;;;;;;22.10;35.52;94455.56;6234769;27;109150;-69
2023/12/01 12:27:56;;;;;;;3.00;2.50;;;;;;;22.17;35.14;94432.97;6235333;27;110027;-68
2023/12/01 12:30:59;;;;;;;3.30;3.00;;;;;;;22.17;35.25;94480.94;6228153;27;109970;-69
2023/12/01 12:34:05;;;;;;;2.97;2.67;;;;;;;22.00;34.97;94439.13;6233192;27;109226;-69
2023/12/01 12:37:11;;;;;;;4.37;3.40;;;;;;;21.99;35.12;94425.03;6234839;27;109049;-69
2023/12/01 12:40:17;;;;;;;3.10;2.70;;;;;;;22.15;35.09;94485.78;6234793;27;109131;-69
2023/12/01 12:43:22;;;;;;;3.50;2.93;;;;;;;22.07;35.00;94396.81;6223344;27;110271;-69
2023/12/01 12:46:26;;;;;;;5.10;3.60;;;;;;;22.14;35.27;94453.03;6234754;27;110289;-69
2023/12/01 12:49:31;;;;;;;4.40;3.53;;;;;;;22.14;35.14;94433.59;6234311;27;109050;-69
2023/12/01 12:52:35;;;;;;;5.87;3.57;;;;;;;22.14;34.87;94452.25;6234653;27;109118;-69
2023/12/01 12:55:39;;;;;;;4.33;3.37;;;;;;;22.13;35.06;94472.00;6223771;27;109111;-70
2023/12/01 12:58:42;;;;;;;4.40;3.30;;;;;;;21.73;34.76;94373.75;6234148;27;109183;-69
2023/12/01 13:01:46;;;;;;;4.40;3.30;;;;;;;22.13;35.34;94456.81;6234436;27;109102;-71
2023/12/01 13:04:49;;;;;;;4.73;4.23;;;;;;;22.11;35.17;94440.34;6229439;28;109020;-70
2023/12/01 13:07:52;;;;;;;4.80;4.07;;;;;;;22.11;35.05;94417.16;6228736;27;110518;-71
2023/12/01 13:10:57;;;;;;;4.70;4.20;;;;;;;22.08;35.15;94447.13;6234027;27;109199;-69
2023/12/01 13:14:00;;;;;;;4.03;3.17;;;;;;;21.99;35.29;94410.94;6233561;27;109141;-70
2023/12/01 13:17:03;;;;;;;4.10;3.70;;;;;;;22.10;34.99;94455.56;6222405;27;109249;-69
2023/12/01 13:20:08;;;;;;;6.13;3.90;;;;;;;21.98;35.08;94404.81;6233958;27;109368;-69
2023/12/01 13:23:11;;;;;;;6.50;4.63;;;;;;;21.98;35.39;94426.13;6234310;27;109225;-70
2023/12/01 13:26:16;;;;;;;5.73;3.80;;;;;;;22.13;35.15;94440.81;6234133;27;109163;-70
2023/12/01 13:29:19;;;;;;;5.13;4.07;;;;;;;21.99;34.90;94433.03;6222569;27;109102;-70
2023/12/01 13:32:22;;;;;;;5.70;4.40;;;;;;;22.13;35.22;94470.13;6233831;27;109289;-70
2023/12/01 13:35:25;;;;;;;6.23;4.20;;;;;;;21.98;35.23;94434.13;6234112;27;109482;-70
2023/12/01 13:38:29;;;;;;;6.97;5.20;;;;;;;22.13;35.11;94434.69;6231154;27;109286;-68
2023/12/01 13:41:33;;;;;;;5.80;4.47;;;;;;;22.11;35.20;94421.72;6227852;28;110734;-70
2023/12/01 13:44:36;;;;;;;6.33;4.80;;;;;;;22.11;35.07;94437.69;6233566;28;108708;-70
2023/12/01 13:47:40;;;;;;;5.20;4.50;;;;;;;22.11;35.56;94443.81;6209495;28;109165;-70
2023/12/01 13:50:43;;;;;;;5.10;4.60;;;;;;;22.12;34.94;94452.56;6222110;28;110404;-71
2023/12/01 13:53:47;;;;;;;6.23;4.43;;;;;;;22.11;35.48;94449.13;6234173;28;110210;-69
2023/12/01 13:56:51;;;;;;;6.10;4.93;;;;;;;22.12;35.42;94500.53;6233435;27;109367;-69
2023/12/01 13:59:56;;;;;;;9.10;5.20;;;;;;;21.91;35.09;94419.75;6233527;27;109040;-70
2023/12/01 14:02:59;;;;;;;8.10;5.80;;;;;;;22.08;35.12;94452.44;6221100;27;109401;-69
2023/12/01 14:06:03;;;;;;;8.63;5.20;;;;;;;22.10;35.65;94492.88;6232816;27;109920;-69
2023/12/01 14:09:06;;;;;;;6.80;4.90;;;;;;;22.10;35.48;94450.22;6233388;27;108745;-69
2023/12/01 14:12:11;;;;;;;7.30;4.90;;;;;;;22.11;35.02;94451.78;6232864;27;109179;-68
2023/12/01 14:15:15;;;;;;;6.70;4.87;;;;;;;22.11;35.04;94483.78;6222000;27;109073;-69
2023/12/01 14:18:18;;;;;;;5.40;4.80;;;;;;;21.90;35.46;94453.59;6236963;27;109063;-68